createdAt,value
2022-11-26T00:02:22.906Z,44.12
2022-11-26T00:04:50.630Z,44.22
2022-11-26T00:07:18.986Z,43.93
2022-11-26T00:09:46.123Z,44.79
2022-11-26T00:12:20.543Z,43.70
2022-11-26T00:14:47.676Z,43.92
2022-11-26T00:17:15.340Z,43.70
2022-11-26T00:19:42.821Z,43.91
2022-11-26T00:22:24.610Z,43.66
2022-11-26T00:24:52.487Z,43.43
2022-11-26T00:27:19.707Z,43.42
2022-11-26T00:29:46.805Z,43.38
2022-11-26T00:32:15.187Z,43.40
2022-11-26T00:34:42.384Z,43.65
2022-11-26T00:37:12.079Z,43.58
2022-11-26T00:39:39.481Z,43.41
2022-11-26T00:42:06.588Z,44.31
2022-11-26T00:44:33.685Z,43.73
2022-11-26T00:47:01.039Z,43.68
2022-11-26T00:49:28.936Z,43.89
2022-11-26T00:51:56.056Z,43.32
2022-11-26T00:54:23.435Z,43.43
2022-11-26T00:56:50.749Z,43.08
2022-11-26T00:59:19.183Z,43.00
2022-11-26T01:01:46.609Z,43.11
2022-11-26T01:04:13.812Z,42.96
2022-11-26T01:06:41.607Z,42.97
2022-11-26T01:09:12.940Z,43.17
2022-11-26T01:11:40.036Z,43.15
2022-11-26T01:14:09.711Z,43.46
2022-11-26T01:16:39.272Z,43.23
2022-11-26T01:19:06.440Z,43.26
2022-11-26T01:21:33.535Z,43.07
2022-11-26T01:24:00.927Z,42.85
2022-11-26T01:26:28.606Z,43.02
2022-11-26T01:28:55.738Z,43.14
2022-11-26T01:31:24.133Z,42.85
2022-11-26T01:33:51.285Z,43.35
2022-11-26T01:36:38.027Z,43.52
2022-11-26T01:39:06.701Z,43.98
2022-11-26T01:41:43.705Z,43.61
2022-11-26T01:44:16.192Z,43.48
2022-11-26T01:46:43.334Z,43.90
2022-11-26T01:49:15.133Z,43.42
2022-11-26T01:51:42.246Z,43.18
2022-11-26T01:54:09.394Z,43.05
2022-11-26T01:56:41.457Z,43.60
2022-11-26T01:59:08.556Z,43.20
2022-11-26T02:01:36.044Z,43.10
2022-11-26T02:04:11.477Z,43.45
2022-11-26T02:06:38.579Z,44.11
2022-11-26T02:09:06.614Z,43.67
2022-11-26T02:11:33.716Z,43.14
2022-11-26T02:14:32.174Z,43.05
2022-11-26T02:17:19.370Z,42.99
2022-11-26T02:20:06.034Z,44.13
2022-11-26T02:22:33.337Z,43.30
2022-11-26T02:25:19.931Z,43.01
2022-11-26T02:27:52.299Z,43.08
2022-11-26T02:30:19.467Z,43.15
2022-11-26T02:32:54.453Z,43.58
2022-11-26T02:35:31.920Z,43.50
2022-11-26T02:38:04.735Z,43.42
2022-11-26T02:40:32.101Z,43.43
2022-11-26T02:42:59.597Z,43.35
2022-11-26T02:45:28.184Z,43.48
2022-11-26T02:47:56.212Z,43.08
2022-11-26T02:50:27.738Z,43.35
2022-11-26T02:52:55.101Z,43.42
2022-11-26T02:55:23.411Z,42.58
2022-11-26T02:57:51.944Z,43.29
2022-11-26T03:00:19.269Z,43.64
2022-11-26T03:02:46.570Z,44.60
2022-11-26T03:05:13.738Z,46.15
2022-11-26T03:07:40.991Z,46.04
2022-11-26T03:10:08.674Z,45.11
2022-11-26T03:12:35.786Z,44.88
2022-11-26T03:15:03.197Z,44.95
2022-11-26T03:17:30.832Z,44.45
2022-11-26T03:19:57.936Z,44.47
2022-11-26T03:22:25.057Z,44.16
2022-11-26T03:24:52.427Z,44.67
2022-11-26T03:27:19.538Z,44.23
2022-11-26T03:29:46.666Z,44.37
2022-11-26T03:32:14.109Z,44.73
2022-11-26T03:34:41.368Z,44.76
2022-11-26T03:37:10.008Z,45.35
2022-11-26T03:39:37.439Z,45.05
2022-11-26T03:42:04.536Z,44.61
2022-11-26T03:44:32.156Z,44.32
2022-11-26T03:46:59.525Z,44.43
2022-11-26T03:49:26.696Z,44.56
2022-11-26T03:51:53.784Z,44.59
2022-11-26T03:54:21.127Z,44.28
2022-11-26T03:56:48.304Z,44.38
2022-11-26T03:59:15.413Z,44.39
2022-11-26T04:01:42.843Z,44.64
2022-11-26T04:04:10.282Z,44.43
2022-11-26T04:06:37.424Z,44.05
2022-11-26T04:09:04.533Z,45.68
2022-11-26T04:11:31.905Z,47.18
2022-11-26T04:13:59.054Z,47.33
2022-11-26T04:16:26.225Z,46.23
2022-11-26T04:18:53.592Z,47.99
2022-11-26T04:21:20.687Z,47.23
2022-11-26T04:23:48.209Z,47.14
2022-11-26T04:26:15.578Z,46.52
2022-11-26T04:28:43.976Z,46.80
2022-11-26T04:31:11.064Z,46.48
2022-11-26T04:33:38.423Z,46.50
2022-11-26T04:36:05.531Z,48.01
2022-11-26T04:38:32.641Z,46.66
2022-11-26T04:41:00.000Z,46.66
2022-11-26T04:43:27.110Z,46.61
2022-11-26T04:45:54.231Z,46.20
2022-11-26T04:48:21.616Z,46.30
2022-11-26T04:50:49.195Z,48.33
2022-11-26T04:53:16.727Z,46.83
2022-11-26T04:55:44.073Z,50.95
2022-11-26T04:58:11.363Z,49.22
2022-11-26T05:00:40.114Z,48.43
2022-11-26T05:03:07.657Z,50.49
2022-11-26T05:05:34.916Z,50.53
2022-11-26T05:08:02.139Z,48.60
2022-11-26T05:10:29.504Z,47.98
2022-11-26T05:12:56.591Z,47.66
2022-11-26T05:15:23.709Z,46.83
2022-11-26T05:17:51.085Z,46.34
2022-11-26T05:20:18.177Z,46.16
2022-11-26T05:22:45.277Z,45.97
2022-11-26T05:25:12.670Z,45.86
2022-11-26T05:27:39.795Z,45.69
2022-11-26T05:30:07.495Z,44.76
2022-11-26T05:32:34.854Z,44.76
2022-11-26T05:35:01.960Z,45.86
2022-11-26T05:37:29.077Z,46.82
2022-11-26T05:39:56.488Z,48.94
2022-11-26T05:42:23.578Z,47.61
2022-11-26T05:44:50.679Z,46.46
2022-11-26T05:47:18.019Z,45.92
2022-11-26T05:49:45.129Z,47.59
2022-11-26T05:52:12.221Z,46.27
2022-11-26T05:54:39.999Z,46.28
2022-11-26T05:57:07.247Z,45.74
2022-11-26T05:59:34.603Z,45.28
2022-11-26T06:02:02.120Z,45.29
2022-11-26T06:04:29.569Z,45.23
2022-11-26T06:06:57.693Z,44.72
2022-11-26T06:09:24.796Z,44.87
2022-11-26T06:11:52.181Z,45.17
2022-11-26T06:14:19.313Z,45.10
2022-11-26T06:16:46.492Z,44.82
2022-11-26T06:19:13.973Z,44.67
2022-11-26T06:21:41.079Z,44.45
2022-11-26T06:24:08.178Z,44.37
2022-11-26T06:26:35.545Z,43.99
2022-11-26T06:29:03.124Z,44.34
2022-11-26T06:31:30.320Z,44.49
2022-11-26T06:33:57.721Z,44.51
2022-11-26T06:36:24.823Z,44.76
2022-11-26T06:38:51.917Z,44.49
2022-11-26T06:41:19.299Z,44.84
2022-11-26T06:43:46.407Z,44.94
2022-11-26T06:46:13.551Z,45.30
2022-11-26T06:48:40.955Z,44.56
2022-11-26T06:51:09.556Z,44.65
2022-11-26T06:53:36.690Z,44.77
2022-11-26T06:56:04.828Z,44.51
2022-11-26T06:58:32.034Z,44.60
2022-11-26T07:00:59.215Z,44.87
2022-11-26T07:03:31.877Z,44.57
2022-11-26T07:06:00.303Z,44.42
2022-11-26T07:08:27.668Z,44.69
2022-11-26T07:10:54.776Z,45.02
2022-11-26T07:13:21.885Z,45.42
2022-11-26T07:15:49.304Z,44.96
2022-11-26T07:18:16.463Z,45.00
2022-11-26T07:20:43.546Z,46.72
2022-11-26T07:23:10.969Z,48.19
2022-11-26T07:25:38.082Z,47.21
2022-11-26T07:28:05.195Z,46.13
2022-11-26T07:30:32.570Z,46.89
2022-11-26T07:32:59.689Z,46.05
2022-11-26T07:35:27.115Z,47.06
2022-11-26T07:37:54.225Z,48.67
2022-11-26T07:40:21.402Z,47.11
2022-11-26T07:42:53.168Z,47.21
2022-11-26T07:45:24.466Z,46.85
2022-11-26T07:47:51.828Z,45.33
2022-11-26T07:50:18.930Z,46.14
2022-11-26T07:52:46.049Z,44.96
2022-11-26T07:55:13.439Z,46.71
2022-11-26T07:57:40.540Z,47.00
2022-11-26T08:00:07.956Z,47.21
2022-11-26T08:02:39.053Z,51.34
2022-11-26T08:05:06.692Z,51.79
2022-11-26T08:07:34.869Z,48.86
2022-11-26T08:10:02.408Z,50.19
2022-11-26T08:12:29.770Z,49.23
2022-11-26T08:14:57.002Z,50.28
2022-11-26T08:17:24.109Z,48.99
2022-11-26T08:19:51.459Z,49.27
2022-11-26T08:22:18.554Z,48.62
2022-11-26T08:24:45.700Z,51.53
2022-11-26T08:27:13.077Z,53.89
2022-11-26T08:29:40.195Z,53.28
2022-11-26T08:32:07.633Z,51.45
2022-11-26T08:34:35.412Z,51.60
2022-11-26T08:37:02.516Z,51.26
2022-11-26T08:39:29.637Z,50.76
2022-11-26T08:41:57.033Z,51.03
2022-11-26T08:44:24.227Z,51.92
2022-11-26T08:46:51.317Z,51.10
2022-11-26T08:49:18.752Z,54.48
2022-11-26T08:51:45.927Z,51.49
2022-11-26T08:54:13.019Z,51.38
2022-11-26T08:56:40.430Z,51.07
2022-11-26T08:59:07.551Z,50.83
2022-11-26T09:01:34.738Z,50.76
2022-11-26T09:04:02.557Z,51.46
2022-11-26T09:06:30.513Z,49.83
2022-11-26T09:09:13.084Z,48.77
2022-11-26T09:11:50.853Z,50.12
2022-11-26T09:14:19.271Z,49.30
2022-11-26T09:16:46.777Z,49.00
2022-11-26T09:19:13.971Z,49.88
2022-11-26T09:21:41.077Z,51.04
2022-11-26T09:24:08.640Z,49.12
2022-11-26T09:26:35.994Z,49.27
2022-11-26T09:29:03.623Z,51.32
2022-11-26T09:31:31.127Z,53.73
2022-11-26T09:33:58.974Z,54.80
2022-11-26T09:36:26.189Z,51.49
2022-11-26T09:38:57.098Z,54.65
2022-11-26T09:41:28.883Z,55.73
2022-11-26T09:44:15.317Z,56.43
2022-11-26T09:47:11.698Z,54.53
2022-11-26T09:49:42.963Z,52.45
2022-11-26T09:52:10.059Z,55.25
2022-11-26T09:54:37.379Z,55.42
2022-11-26T09:57:19.801Z,55.52
2022-11-26T09:59:46.960Z,54.16
2022-11-26T10:02:14.493Z,54.63
2022-11-26T10:04:41.925Z,51.19
2022-11-26T10:07:09.076Z,51.96
2022-11-26T10:09:36.499Z,51.24
2022-11-26T10:12:25.904Z,50.10
2022-11-26T10:15:07.793Z,50.84
2022-11-26T10:17:38.710Z,51.09
2022-11-26T10:20:24.244Z,51.67
2022-11-26T10:23:17.679Z,51.46
2022-11-26T10:25:46.437Z,51.88
2022-11-26T10:28:16.839Z,52.97
2022-11-26T10:30:43.955Z,53.84
2022-11-26T10:33:12.097Z,55.19
2022-11-26T10:35:39.600Z,54.24
2022-11-26T10:38:08.493Z,53.81
2022-11-26T10:40:35.679Z,51.94
2022-11-26T10:43:08.122Z,51.63
2022-11-26T10:45:47.945Z,53.30
2022-11-26T10:48:21.747Z,54.96
2022-11-26T10:50:55.335Z,54.07
2022-11-26T10:53:23.281Z,53.48
2022-11-26T10:55:50.956Z,53.32
2022-11-26T10:58:22.348Z,51.53
2022-11-26T11:00:49.757Z,51.75
2022-11-26T11:03:44.551Z,52.42
2022-11-26T11:06:18.718Z,52.07
2022-11-26T11:08:49.901Z,50.88
2022-11-26T11:11:23.369Z,50.93
2022-11-26T11:13:50.567Z,50.93
2022-11-26T11:16:25.661Z,51.66
2022-11-26T11:18:54.680Z,52.22
2022-11-26T11:21:22.473Z,54.67
2022-11-26T11:24:08.157Z,53.82
2022-11-26T11:26:40.551Z,57.16
2022-11-26T11:29:11.604Z,54.14
2022-11-26T11:31:45.590Z,53.82
2022-11-26T11:34:18.010Z,56.19
2022-11-26T11:36:45.413Z,55.59
2022-11-26T11:39:26.958Z,56.82
2022-11-26T11:41:54.336Z,54.50
2022-11-26T11:44:25.634Z,54.66
2022-11-26T11:47:11.611Z,56.06
2022-11-26T11:49:43.069Z,57.31
2022-11-26T11:52:13.439Z,57.75
2022-11-26T11:55:00.154Z,55.27
2022-11-26T11:57:38.097Z,56.62
2022-11-26T12:00:26.763Z,56.10
2022-11-26T12:02:54.075Z,56.95
2022-11-26T12:05:36.343Z,57.72
2022-11-26T12:08:12.378Z,57.04
2022-11-26T12:10:48.732Z,58.16
2022-11-26T12:13:16.096Z,56.85
2022-11-26T12:15:51.803Z,58.66
2022-11-26T12:18:22.565Z,56.93
2022-11-26T12:20:50.903Z,58.45
2022-11-26T12:23:36.673Z,57.07
2022-11-26T12:26:06.296Z,57.32
2022-11-26T12:28:34.215Z,58.03
2022-11-26T12:31:05.870Z,57.71
2022-11-26T12:33:41.399Z,58.52
2022-11-26T12:36:24.902Z,58.55
2022-11-26T12:39:06.635Z,56.93
2022-11-26T12:41:33.759Z,54.45
2022-11-26T12:44:04.125Z,58.22
2022-11-26T12:46:34.756Z,55.59
2022-11-26T12:49:14.232Z,56.86
2022-11-26T12:51:55.185Z,58.69
2022-11-26T12:54:24.667Z,58.06
2022-11-26T12:56:57.287Z,55.76
2022-11-26T12:59:30.585Z,56.88
2022-11-26T13:01:57.972Z,54.29
2022-11-26T13:04:37.538Z,57.57
2022-11-26T13:07:25.952Z,56.22
2022-11-26T13:09:59.251Z,57.28
2022-11-26T13:12:29.596Z,55.08
2022-11-26T13:15:00.032Z,56.42
2022-11-26T13:17:29.434Z,57.56
2022-11-26T13:20:00.352Z,56.05
2022-11-26T13:22:40.696Z,55.41
2022-11-26T13:25:09.391Z,55.25
2022-11-26T13:27:56.838Z,55.12
2022-11-26T13:30:24.944Z,54.38
2022-11-26T13:32:58.002Z,52.90
2022-11-26T13:35:37.360Z,52.68
2022-11-26T13:38:17.666Z,53.16
2022-11-26T13:41:17.589Z,53.42
2022-11-26T13:43:53.571Z,52.50
2022-11-26T13:46:22.829Z,53.10
2022-11-26T13:48:59.334Z,51.73
2022-11-26T13:51:46.998Z,53.69
2022-11-26T13:54:21.541Z,51.69
2022-11-26T13:56:48.923Z,53.14
2022-11-26T13:59:23.959Z,54.11
2022-11-26T14:01:54.442Z,52.24
2022-11-26T14:04:24.860Z,53.95
2022-11-26T14:07:03.923Z,54.92
2022-11-26T14:09:46.348Z,54.14
2022-11-26T14:12:14.026Z,57.57
2022-11-26T14:14:42.121Z,52.80
2022-11-26T14:17:13.861Z,53.62
2022-11-26T14:19:40.901Z,53.50
2022-11-26T14:22:08.233Z,53.18
2022-11-26T14:24:53.285Z,54.66
2022-11-26T14:27:24.087Z,56.31
2022-11-26T14:29:55.507Z,54.98
2022-11-26T14:32:23.565Z,55.09
2022-11-26T14:34:51.380Z,55.87
2022-11-26T14:37:19.979Z,55.94
2022-11-26T14:39:58.675Z,56.60
2022-11-26T14:42:26.081Z,54.63
2022-11-26T14:45:12.595Z,53.50
2022-11-26T14:47:39.736Z,53.55
2022-11-26T14:50:07.398Z,54.45
2022-11-26T14:52:35.138Z,55.04
2022-11-26T14:55:03.379Z,53.63
2022-11-26T14:57:49.517Z,56.43
2022-11-26T15:00:16.770Z,54.80
2022-11-26T15:02:48.278Z,52.83
2022-11-26T15:05:16.905Z,54.75
2022-11-26T15:07:44.597Z,53.15
2022-11-26T15:10:14.753Z,55.77
2022-11-26T15:12:44.689Z,55.85
2022-11-26T15:15:19.197Z,55.16
2022-11-26T15:17:50.897Z,54.19
2022-11-26T15:20:18.314Z,54.95
2022-11-26T15:22:49.404Z,53.45
2022-11-26T15:25:16.474Z,56.29
2022-11-26T15:27:54.250Z,53.77
2022-11-26T15:30:25.977Z,55.65
2022-11-26T15:33:08.655Z,53.94
2022-11-26T15:35:36.436Z,53.14
2022-11-26T15:38:14.835Z,52.95
2022-11-26T15:40:46.309Z,52.24
2022-11-26T15:43:19.935Z,53.11
2022-11-26T15:45:47.061Z,53.23
2022-11-26T15:48:28.075Z,53.61
2022-11-26T15:51:09.935Z,52.13
2022-11-26T15:53:37.635Z,49.59
2022-11-26T15:56:04.850Z,48.79
2022-11-26T15:58:33.286Z,47.43
2022-11-26T16:01:01.429Z,50.42
2022-11-26T16:03:33.162Z,50.05
2022-11-26T16:06:00.523Z,50.02
2022-11-26T16:08:30.271Z,49.36
2022-11-26T16:11:03.920Z,47.89
2022-11-26T16:13:31.751Z,46.73
2022-11-26T16:16:02.512Z,46.39
2022-11-26T16:18:37.095Z,46.08
2022-11-26T16:21:08.733Z,45.68
2022-11-26T16:23:35.980Z,45.22
2022-11-26T16:26:07.246Z,44.74
2022-11-26T16:28:34.647Z,44.93
2022-11-26T16:31:02.089Z,44.21
2022-11-26T16:33:29.770Z,44.43
2022-11-26T16:35:57.189Z,43.94
2022-11-26T16:38:25.270Z,43.69
2022-11-26T16:40:52.892Z,44.03
2022-11-26T16:43:20.885Z,43.96
2022-11-26T16:45:48.462Z,43.96
2022-11-26T16:48:25.501Z,44.08
2022-11-26T16:50:57.920Z,43.81
2022-11-26T16:53:25.190Z,43.61
2022-11-26T16:55:52.640Z,43.64
2022-11-26T16:58:29.730Z,44.19
2022-11-26T17:00:57.263Z,43.91
2022-11-26T17:03:24.892Z,44.94
2022-11-26T17:05:54.343Z,44.49
2022-11-26T17:08:25.016Z,43.62
2022-11-26T17:10:52.408Z,43.13
2022-11-26T17:13:20.604Z,43.60
2022-11-26T17:15:48.100Z,43.56
2022-11-26T17:18:20.254Z,43.22
2022-11-26T17:20:47.720Z,43.50
2022-11-26T17:23:15.126Z,43.59
2022-11-26T17:25:45.897Z,44.70
2022-11-26T17:28:14.255Z,44.14
2022-11-26T17:30:42.289Z,44.64
2022-11-26T17:33:10.162Z,44.70
2022-11-26T17:35:38.200Z,44.13
2022-11-26T17:38:10.947Z,44.18
2022-11-26T17:40:38.407Z,44.41
2022-11-26T17:43:05.518Z,46.39
2022-11-26T17:45:32.645Z,44.95
2022-11-26T17:48:00.517Z,44.63
2022-11-26T17:50:28.905Z,44.10
2022-11-26T17:52:56.458Z,45.05
2022-11-26T17:55:24.434Z,45.27
2022-11-26T17:57:52.080Z,47.03
2022-11-26T18:00:20.666Z,46.08
2022-11-26T18:02:48.279Z,46.61
2022-11-26T18:05:16.484Z,46.80
2022-11-26T18:07:43.967Z,46.89
2022-11-26T18:10:15.686Z,46.69
2022-11-26T18:12:43.105Z,48.09
2022-11-26T18:15:16.344Z,48.37
2022-11-26T18:17:51.312Z,48.83
2022-11-26T18:20:19.742Z,48.18
2022-11-26T18:22:49.761Z,47.72
2022-11-26T18:25:17.250Z,49.16
2022-11-26T18:27:44.837Z,50.58
2022-11-26T18:30:12.499Z,50.35
2022-11-26T18:32:39.732Z,49.96
2022-11-26T18:35:07.602Z,49.60
2022-11-26T18:37:35.526Z,48.46
2022-11-26T18:40:03.556Z,47.89
2022-11-26T18:42:38.657Z,48.17
2022-11-26T18:45:07.227Z,47.56
2022-11-26T18:47:35.665Z,47.17
2022-11-26T18:50:03.265Z,46.76
2022-11-26T18:52:31.286Z,46.87
2022-11-26T18:54:58.638Z,47.21
2022-11-26T18:57:26.267Z,46.51
2022-11-26T18:59:53.898Z,46.20
2022-11-26T19:02:21.755Z,45.98
2022-11-26T19:04:49.504Z,46.01
2022-11-26T19:07:17.380Z,46.16
2022-11-26T19:09:45.071Z,45.48
2022-11-26T19:12:12.911Z,45.65
2022-11-26T19:14:40.556Z,45.39
2022-11-26T19:17:09.437Z,45.44
2022-11-26T19:19:38.277Z,45.52
2022-11-26T19:22:06.608Z,45.20
2022-11-26T19:24:34.327Z,44.75
2022-11-26T19:27:03.051Z,44.73
2022-11-26T19:29:31.168Z,45.31
2022-11-26T19:31:59.096Z,45.13
2022-11-26T19:34:26.682Z,44.93
2022-11-26T19:36:56.885Z,44.64
2022-11-26T19:39:24.563Z,45.35
2022-11-26T19:41:52.309Z,46.12
2022-11-26T19:44:21.820Z,46.02
2022-11-26T19:46:49.587Z,45.52
2022-11-26T19:49:17.312Z,46.09
2022-11-26T19:51:44.763Z,45.47
2022-11-26T19:54:12.303Z,45.17
2022-11-26T19:56:39.874Z,45.76
2022-11-26T19:59:07.637Z,45.80
2022-11-26T20:01:36.261Z,47.03
2022-11-26T20:04:05.515Z,45.95
2022-11-26T20:06:33.823Z,45.63
2022-11-26T20:09:01.369Z,45.48
2022-11-26T20:11:29.363Z,46.10
2022-11-26T20:13:57.449Z,45.55
2022-11-26T20:16:26.768Z,45.37
2022-11-26T20:18:54.914Z,45.77
2022-11-26T20:21:26.979Z,46.50
2022-11-26T20:23:55.353Z,46.16
2022-11-26T20:26:25.681Z,45.93
2022-11-26T20:28:53.494Z,45.84
2022-11-26T20:31:23.887Z,46.33
2022-11-26T20:33:53.367Z,45.83
2022-11-26T20:36:23.001Z,45.22
2022-11-26T20:38:54.670Z,45.85
2022-11-26T20:41:23.296Z,45.44
2022-11-26T20:43:56.513Z,45.27
2022-11-26T20:46:25.817Z,46.01
2022-11-26T20:48:53.480Z,45.74
2022-11-26T20:51:22.376Z,45.64
2022-11-26T20:53:51.147Z,45.77
2022-11-26T20:56:19.449Z,45.68
2022-11-26T20:58:47.367Z,45.56
2022-11-26T21:01:16.201Z,45.71
2022-11-26T21:03:43.506Z,45.53
2022-11-26T21:06:12.351Z,45.77
2022-11-26T21:08:40.582Z,45.64
2022-11-26T21:11:08.406Z,45.44
2022-11-26T21:13:36.563Z,46.12
2022-11-26T21:16:04.775Z,46.14
2022-11-26T21:18:32.568Z,45.66
2022-11-26T21:21:00.054Z,45.78
2022-11-26T21:23:28.355Z,46.99
2022-11-26T21:25:55.718Z,47.85
2022-11-26T21:28:23.185Z,47.84
2022-11-26T21:30:51.166Z,48.69
2022-11-26T21:33:18.389Z,47.42
2022-11-26T21:35:45.641Z,48.15
2022-11-26T21:38:13.732Z,49.21
2022-11-26T21:40:41.048Z,49.19
2022-11-26T21:43:08.423Z,49.24
2022-11-26T21:45:35.861Z,48.81
2022-11-26T21:48:02.990Z,48.20
2022-11-26T21:50:30.245Z,49.02
2022-11-26T21:52:57.681Z,50.19
2022-11-26T21:55:24.880Z,49.88
2022-11-26T21:57:52.056Z,50.96
2022-11-26T22:00:19.553Z,49.33
2022-11-26T22:02:47.011Z,49.42
2022-11-26T22:05:14.239Z,48.71
2022-11-26T22:07:41.637Z,49.35
2022-11-26T22:10:09.453Z,48.95
2022-11-26T22:12:36.558Z,47.56
2022-11-26T22:15:03.733Z,47.74
2022-11-26T22:17:31.124Z,47.46
2022-11-26T22:19:58.261Z,46.70
2022-11-26T22:22:25.362Z,46.59
2022-11-26T22:24:52.841Z,46.39
2022-11-26T22:27:19.953Z,47.84
2022-11-26T22:29:47.635Z,47.22
2022-11-26T22:32:15.008Z,47.99
2022-11-26T22:34:42.195Z,46.74
2022-11-26T22:37:09.306Z,46.59
2022-11-26T22:39:36.852Z,46.71
2022-11-26T22:42:04.173Z,46.21
2022-11-26T22:44:31.307Z,46.20
2022-11-26T22:46:58.688Z,46.43
2022-11-26T22:49:25.821Z,47.09
2022-11-26T22:51:52.925Z,46.80
2022-11-26T22:54:21.324Z,46.20
2022-11-26T22:56:48.483Z,46.22
2022-11-26T22:59:15.591Z,46.52
2022-11-26T23:01:42.971Z,46.84
2022-11-26T23:04:10.441Z,46.12
2022-11-26T23:06:38.055Z,45.62
2022-11-26T23:09:05.792Z,46.25
2022-11-26T23:11:33.876Z,46.45
2022-11-26T23:14:02.178Z,46.14
2022-11-26T23:16:29.689Z,46.54
2022-11-26T23:18:57.048Z,46.29
2022-11-26T23:21:25.575Z,46.43
2022-11-26T23:23:53.110Z,45.75
2022-11-26T23:26:26.374Z,47.34
2022-11-26T23:28:58.133Z,48.85
2022-11-26T23:31:26.965Z,48.77
2022-11-26T23:33:54.397Z,50.73
2022-11-26T23:36:21.543Z,49.89
2022-11-26T23:38:48.676Z,50.07
2022-11-26T23:41:16.148Z,49.06
2022-11-26T23:43:43.351Z,48.14
2022-11-26T23:46:13.600Z,47.67
2022-11-26T23:48:41.329Z,47.98
2022-11-26T23:51:09.613Z,46.88
2022-11-26T23:53:37.156Z,47.04
2022-11-26T23:56:05.495Z,47.73
2022-11-26T23:58:32.678Z,46.79
